sensor_id;sensor_type;location;lat;lon;timestamp;temperature;humidity
65146;DHT22;51730;56.950;24.126;2023-01-05T00:01:08;0.70;99.90
65146;DHT22;51730;56.950;24.126;2023-01-05T00:03:35;0.70;99.90
65146;DHT22;51730;56.950;24.126;2023-01-05T00:06:05;0.60;99.90
65146;DHT22;51730;56.950;24.126;2023-01-05T00:08:32;0.60;99.90
65146;DHT22;51730;56.950;24.126;2023-01-05T00:11:25;0.60;99.90
65146;DHT22;51730;56.950;24.126;2023-01-05T00:14:21;0.50;99.90
65146;DHT22;51730;56.950;24.126;2023-01-05T00:17:11;0.50;99.90
65146;DHT22;51730;56.950;24.126;2023-01-05T00:19:57;0.50;99.90
65146;DHT22;51730;56.950;24.126;2023-01-05T00:22:47;0.50;99.90
65146;DHT22;51730;56.950;24.126;2023-01-05T00:25:20;0.60;99.90
65146;DHT22;51730;56.950;24.126;2023-01-05T00:27:48;0.60;99.90
65146;DHT22;51730;56.950;24.126;2023-01-05T00:30:20;0.60;99.90
65146;DHT22;51730;56.950;24.126;2023-01-05T00:32:47;0.50;99.90
65146;DHT22;51730;56.950;24.126;2023-01-05T00:35:15;0.50;99.90
65146;DHT22;51730;56.950;24.126;2023-01-05T00:37:42;0.50;99.90
65146;DHT22;51730;56.950;24.126;2023-01-05T00:40:12;0.40;99.90
65146;DHT22;51730;56.950;24.126;2023-01-05T00:42:40;0.40;99.90
65146;DHT22;51730;56.950;24.126;2023-01-05T00:45:10;0.40;99.90
65146;DHT22;51730;56.950;24.126;2023-01-05T00:47:38;0.50;99.90
65146;DHT22;51730;56.950;24.126;2023-01-05T00:50:05;0.50;99.90
65146;DHT22;51730;56.950;24.126;2023-01-05T00:52:32;0.40;99.90
65146;DHT22;51730;56.950;24.126;2023-01-05T00:54:59;0.40;99.90
65146;DHT22;51730;56.950;24.126;2023-01-05T00:57:26;0.40;99.90
65146;DHT22;51730;56.950;24.126;2023-01-05T00:59:53;0.50;99.90
65146;DHT22;51730;56.950;24.126;2023-01-05T01:02:20;0.50;99.90
65146;DHT22;51730;56.950;24.126;2023-01-05T01:04:47;0.40;99.90
65146;DHT22;51730;56.950;24.126;2023-01-05T01:07:14;0.30;99.90
65146;DHT22;51730;56.950;24.126;2023-01-05T01:09:41;0.30;99.90
65146;DHT22;51730;56.950;24.126;2023-01-05T01:12:08;0.30;99.90
65146;DHT22;51730;56.950;24.126;2023-01-05T01:14:36;0.30;99.90
65146;DHT22;51730;56.950;24.126;2023-01-05T01:17:03;0.40;99.90
65146;DHT22;51730;56.950;24.126;2023-01-05T01:19:30;0.30;99.90
65146;DHT22;51730;56.950;24.126;2023-01-05T01:21:57;0.40;99.90
65146;DHT22;51730;56.950;24.126;2023-01-05T01:24:25;0.30;99.90
65146;DHT22;51730;56.950;24.126;2023-01-05T01:26:54;0.30;99.90
65146;DHT22;51730;56.950;24.126;2023-01-05T01:29:21;0.40;99.90
65146;DHT22;51730;56.950;24.126;2023-01-05T01:31:51;0.30;99.90
65146;DHT22;51730;56.950;24.126;2023-01-05T01:34:18;0.30;99.90
65146;DHT22;51730;56.950;24.126;2023-01-05T01:36:46;0.30;99.90
65146;DHT22;51730;56.950;24.126;2023-01-05T01:39:13;0.30;99.90
65146;DHT22;51730;56.950;24.126;2023-01-05T01:41:40;0.30;99.90
65146;DHT22;51730;56.950;24.126;2023-01-05T01:47:21;0.40;99.90
65146;DHT22;51730;56.950;24.126;2023-01-05T01:49:50;0.30;99.90
65146;DHT22;51730;56.950;24.126;2023-01-05T01:52:19;0.30;99.90
65146;DHT22;51730;56.950;24.126;2023-01-05T01:54:47;0.30;99.90
65146;DHT22;51730;56.950;24.126;2023-01-05T01:57:16;0.30;99.90
65146;DHT22;51730;56.950;24.126;2023-01-05T01:59:43;0.30;99.90
65146;DHT22;51730;56.950;24.126;2023-01-05T02:02:10;0.30;99.90
65146;DHT22;51730;56.950;24.126;2023-01-05T02:04:38;0.30;99.90
65146;DHT22;51730;56.950;24.126;2023-01-05T02:07:07;0.30;99.90
65146;DHT22;51730;56.950;24.126;2023-01-05T02:09:36;0.20;99.90
65146;DHT22;51730;56.950;24.126;2023-01-05T02:15:13;0.30;99.90
65146;DHT22;51730;56.950;24.126;2023-01-05T02:23:37;0.40;99.90
65146;DHT22;51730;56.950;24.126;2023-01-05T02:31:52;0.40;99.90
65146;DHT22;51730;56.950;24.126;2023-01-05T02:34:39;0.30;99.90
65146;DHT22;51730;56.950;24.126;2023-01-05T02:42:32;0.20;99.90
65146;DHT22;51730;56.950;24.126;2023-01-05T02:45:01;0.20;99.90
65146;DHT22;51730;56.950;24.126;2023-01-05T02:47:39;0.20;99.90
65146;DHT22;51730;56.950;24.126;2023-01-05T02:50:17;0.20;99.90
65146;DHT22;51730;56.950;24.126;2023-01-05T02:53:04;0.20;99.90
65146;DHT22;51730;56.950;24.126;2023-01-05T02:55:42;0.20;99.90
65146;DHT22;51730;56.950;24.126;2023-01-05T02:58:16;0.30;99.90
65146;DHT22;51730;56.950;24.126;2023-01-05T03:00:51;0.20;99.90
65146;DHT22;51730;56.950;24.126;2023-01-05T03:06:43;0.30;99.90
65146;DHT22;51730;56.950;24.126;2023-01-05T03:09:16;0.30;99.90
65146;DHT22;51730;56.950;24.126;2023-01-05T03:12:04;0.30;99.90
65146;DHT22;51730;56.950;24.126;2023-01-05T03:15:02;0.30;99.90
65146;DHT22;51730;56.950;24.126;2023-01-05T03:17:39;0.30;99.90
65146;DHT22;51730;56.950;24.126;2023-01-05T03:20:07;0.30;99.90
65146;DHT22;51730;56.950;24.126;2023-01-05T03:22:36;0.20;99.90
65146;DHT22;51730;56.950;24.126;2023-01-05T03:25:22;0.20;99.90
65146;DHT22;51730;56.950;24.126;2023-01-05T03:28:25;0.20;99.90
65146;DHT22;51730;56.950;24.126;2023-01-05T03:31:27;0.20;99.90
65146;DHT22;51730;56.950;24.126;2023-01-05T03:34:26;0.20;99.90
65146;DHT22;51730;56.950;24.126;2023-01-05T03:37:20;0.20;99.90
65146;DHT22;51730;56.950;24.126;2023-01-05T03:39:48;0.20;99.90
65146;DHT22;51730;56.950;24.126;2023-01-05T03:42:15;0.10;99.90
65146;DHT22;51730;56.950;24.126;2023-01-05T03:44:44;0.10;99.90
65146;DHT22;51730;56.950;24.126;2023-01-05T03:47:12;0.20;99.90
65146;DHT22;51730;56.950;24.126;2023-01-05T03:49:39;0.20;99.90
65146;DHT22;51730;56.950;24.126;2023-01-05T03:52:06;0.10;99.90
65146;DHT22;51730;56.950;24.126;2023-01-05T03:54:33;0.10;99.90
65146;DHT22;51730;56.950;24.126;2023-01-05T03:57:00;0.10;99.90
65146;DHT22;51730;56.950;24.126;2023-01-05T03:59:27;0.10;99.90
65146;DHT22;51730;56.950;24.126;2023-01-05T04:01:54;0.00;99.90
65146;DHT22;51730;56.950;24.126;2023-01-05T04:04:21;0.10;99.90
65146;DHT22;51730;56.950;24.126;2023-01-05T04:06:48;0.20;99.90
65146;DHT22;51730;56.950;24.126;2023-01-05T04:09:15;0.10;99.90
65146;DHT22;51730;56.950;24.126;2023-01-05T04:11:41;0.00;99.90
65146;DHT22;51730;56.950;24.126;2023-01-05T04:14:08;0.10;99.90
65146;DHT22;51730;56.950;24.126;2023-01-05T04:16:35;0.00;99.90
65146;DHT22;51730;56.950;24.126;2023-01-05T04:19:02;0.10;99.90
65146;DHT22;51730;56.950;24.126;2023-01-05T04:21:29;0.10;99.90
65146;DHT22;51730;56.950;24.126;2023-01-05T04:23:56;0.10;99.90
65146;DHT22;51730;56.950;24.126;2023-01-05T04:26:22;0.10;99.90
65146;DHT22;51730;56.950;24.126;2023-01-05T04:28:49;0.10;99.90
65146;DHT22;51730;56.950;24.126;2023-01-05T04:31:16;0.10;99.90
65146;DHT22;51730;56.950;24.126;2023-01-05T04:33:43;0.10;99.90
65146;DHT22;51730;56.950;24.126;2023-01-05T04:36:11;0.10;99.90
65146;DHT22;51730;56.950;24.126;2023-01-05T04:38:37;0.10;99.90
65146;DHT22;51730;56.950;24.126;2023-01-05T04:41:04;0.10;99.90
65146;DHT22;51730;56.950;24.126;2023-01-05T04:43:31;0.10;99.90
65146;DHT22;51730;56.950;24.126;2023-01-05T04:45:58;0.10;99.90
65146;DHT22;51730;56.950;24.126;2023-01-05T04:48:25;0.10;99.90
65146;DHT22;51730;56.950;24.126;2023-01-05T04:50:53;0.10;99.90
65146;DHT22;51730;56.950;24.126;2023-01-05T04:53:20;0.10;99.90
65146;DHT22;51730;56.950;24.126;2023-01-05T04:55:50;0.10;99.90
65146;DHT22;51730;56.950;24.126;2023-01-05T04:58:17;0.00;99.90
65146;DHT22;51730;56.950;24.126;2023-01-05T05:00:44;0.00;99.90
65146;DHT22;51730;56.950;24.126;2023-01-05T05:03:11;0.00;99.90
65146;DHT22;51730;56.950;24.126;2023-01-05T05:05:38;0.00;99.90
65146;DHT22;51730;56.950;24.126;2023-01-05T05:08:05;0.00;99.90
65146;DHT22;51730;56.950;24.126;2023-01-05T05:10:32;0.10;99.90
65146;DHT22;51730;56.950;24.126;2023-01-05T05:12:59;0.10;99.90
65146;DHT22;51730;56.950;24.126;2023-01-05T05:15:25;0.20;99.90
65146;DHT22;51730;56.950;24.126;2023-01-05T05:17:52;0.10;99.90
65146;DHT22;51730;56.950;24.126;2023-01-05T05:20:19;0.10;99.90
65146;DHT22;51730;56.950;24.126;2023-01-05T05:22:46;0.10;99.90
65146;DHT22;51730;56.950;24.126;2023-01-05T05:25:13;0.10;99.90
65146;DHT22;51730;56.950;24.126;2023-01-05T05:27:40;0.00;99.90
65146;DHT22;51730;56.950;24.126;2023-01-05T05:30:07;0.10;99.90
65146;DHT22;51730;56.950;24.126;2023-01-05T05:32:34;0.00;99.90
65146;DHT22;51730;56.950;24.126;2023-01-05T05:35:09;0.00;99.90
65146;DHT22;51730;56.950;24.126;2023-01-05T05:37:36;0.00;99.90
65146;DHT22;51730;56.950;24.126;2023-01-05T05:40:03;0.00;99.90
65146;DHT22;51730;56.950;24.126;2023-01-05T05:42:30;0.10;99.90
65146;DHT22;51730;56.950;24.126;2023-01-05T05:44:57;0.00;99.90
65146;DHT22;51730;56.950;24.126;2023-01-05T05:47:24;0.10;99.90
65146;DHT22;51730;56.950;24.126;2023-01-05T05:49:51;0.10;99.90
65146;DHT22;51730;56.950;24.126;2023-01-05T05:52:17;0.10;99.90
65146;DHT22;51730;56.950;24.126;2023-01-05T05:54:44;0.00;99.90
65146;DHT22;51730;56.950;24.126;2023-01-05T05:57:11;0.00;99.90
65146;DHT22;51730;56.950;24.126;2023-01-05T05:59:38;0.00;99.90
65146;DHT22;51730;56.950;24.126;2023-01-05T06:02:05;-0.10;99.90
65146;DHT22;51730;56.950;24.126;2023-01-05T06:04:32;-0.10;99.90
65146;DHT22;51730;56.950;24.126;2023-01-05T06:06:59;-0.20;99.90
65146;DHT22;51730;56.950;24.126;2023-01-05T06:09:26;-0.10;99.90
65146;DHT22;51730;56.950;24.126;2023-01-05T06:11:53;-0.10;99.90
65146;DHT22;51730;56.950;24.126;2023-01-05T06:14:20;-0.10;99.90
65146;DHT22;51730;56.950;24.126;2023-01-05T06:16:46;0.00;99.90
65146;DHT22;51730;56.950;24.126;2023-01-05T06:19:13;-0.20;99.90
65146;DHT22;51730;56.950;24.126;2023-01-05T06:21:40;-0.20;99.90
65146;DHT22;51730;56.950;24.126;2023-01-05T06:24:07;-0.20;99.90
65146;DHT22;51730;56.950;24.126;2023-01-05T06:26:35;-0.20;99.90
65146;DHT22;51730;56.950;24.126;2023-01-05T06:29:02;-0.30;99.90
65146;DHT22;51730;56.950;24.126;2023-01-05T06:31:28;-0.30;99.90
65146;DHT22;51730;56.950;24.126;2023-01-05T06:33:55;-0.20;99.90
65146;DHT22;51730;56.950;24.126;2023-01-05T06:36:22;-0.20;99.90
65146;DHT22;51730;56.950;24.126;2023-01-05T06:38:49;-0.20;99.90
65146;DHT22;51730;56.950;24.126;2023-01-05T06:41:16;-0.10;99.90
65146;DHT22;51730;56.950;24.126;2023-01-05T06:43:43;-0.20;99.90
65146;DHT22;51730;56.950;24.126;2023-01-05T06:46:10;-0.30;99.90
65146;DHT22;51730;56.950;24.126;2023-01-05T06:48:37;-0.40;99.90
65146;DHT22;51730;56.950;24.126;2023-01-05T06:51:03;-0.30;99.90
65146;DHT22;51730;56.950;24.126;2023-01-05T06:53:31;-0.30;99.90
65146;DHT22;51730;56.950;24.126;2023-01-05T06:55:57;-0.30;99.90
65146;DHT22;51730;56.950;24.126;2023-01-05T06:58:24;-0.30;99.90
65146;DHT22;51730;56.950;24.126;2023-01-05T07:00:53;-0.30;99.90
65146;DHT22;51730;56.950;24.126;2023-01-05T07:03:20;-0.30;99.90
65146;DHT22;51730;56.950;24.126;2023-01-05T07:05:50;-0.40;99.90
65146;DHT22;51730;56.950;24.126;2023-01-05T07:08:17;-0.40;99.90
65146;DHT22;51730;56.950;24.126;2023-01-05T07:10:44;-0.40;99.90
65146;DHT22;51730;56.950;24.126;2023-01-05T07:13:11;-0.40;99.90
65146;DHT22;51730;56.950;24.126;2023-01-05T07:15:38;-0.50;99.90
65146;DHT22;51730;56.950;24.126;2023-01-05T07:18:05;-0.50;99.90
65146;DHT22;51730;56.950;24.126;2023-01-05T07:20:32;-0.40;99.90
65146;DHT22;51730;56.950;24.126;2023-01-05T07:22:59;-0.50;99.90
65146;DHT22;51730;56.950;24.126;2023-01-05T07:25:25;-0.40;99.90
65146;DHT22;51730;56.950;24.126;2023-01-05T07:27:57;-0.40;99.90
65146;DHT22;51730;56.950;24.126;2023-01-05T07:30:24;-0.50;99.90
65146;DHT22;51730;56.950;24.126;2023-01-05T07:32:51;-0.50;99.90
65146;DHT22;51730;56.950;24.126;2023-01-05T07:35:18;-0.50;99.90
65146;DHT22;51730;56.950;24.126;2023-01-05T07:37:44;-0.50;99.90
65146;DHT22;51730;56.950;24.126;2023-01-05T07:40:11;-0.40;99.90
65146;DHT22;51730;56.950;24.126;2023-01-05T07:42:38;-0.50;99.90
65146;DHT22;51730;56.950;24.126;2023-01-05T07:45:06;-0.50;99.90
65146;DHT22;51730;56.950;24.126;2023-01-05T07:47:33;-0.50;99.90
65146;DHT22;51730;56.950;24.126;2023-01-05T07:50:00;-0.50;99.90
65146;DHT22;51730;56.950;24.126;2023-01-05T07:52:28;-0.50;99.90
65146;DHT22;51730;56.950;24.126;2023-01-05T07:54:56;-0.60;99.90
65146;DHT22;51730;56.950;24.126;2023-01-05T07:57:23;-0.50;99.90
65146;DHT22;51730;56.950;24.126;2023-01-05T07:59:50;-0.60;99.90
65146;DHT22;51730;56.950;24.126;2023-01-05T08:02:17;-0.60;99.90
65146;DHT22;51730;56.950;24.126;2023-01-05T08:04:45;-0.50;99.90
65146;DHT22;51730;56.950;24.126;2023-01-05T08:07:12;-0.50;99.90
65146;DHT22;51730;56.950;24.126;2023-01-05T08:09:41;-0.60;99.90
65146;DHT22;51730;56.950;24.126;2023-01-05T08:12:27;-0.50;99.90
65146;DHT22;51730;56.950;24.126;2023-01-05T08:14:55;-0.50;99.90
65146;DHT22;51730;56.950;24.126;2023-01-05T08:17:22;-0.50;99.90
65146;DHT22;51730;56.950;24.126;2023-01-05T08:19:49;-0.50;99.90
65146;DHT22;51730;56.950;24.126;2023-01-05T08:22:16;-0.60;99.90
65146;DHT22;51730;56.950;24.126;2023-01-05T08:24:42;-0.60;99.90
65146;DHT22;51730;56.950;24.126;2023-01-05T08:27:09;-0.70;99.90
65146;DHT22;51730;56.950;24.126;2023-01-05T08:29:36;-0.70;99.90
65146;DHT22;51730;56.950;24.126;2023-01-05T08:32:03;-0.70;99.90
65146;DHT22;51730;56.950;24.126;2023-01-05T08:34:30;-0.70;99.90
65146;DHT22;51730;56.950;24.126;2023-01-05T08:37:00;-0.70;99.90
65146;DHT22;51730;56.950;24.126;2023-01-05T08:39:27;-0.70;99.90
65146;DHT22;51730;56.950;24.126;2023-01-05T08:41:54;-0.80;99.90
65146;DHT22;51730;56.950;24.126;2023-01-05T08:44:27;-0.80;99.90
65146;DHT22;51730;56.950;24.126;2023-01-05T08:46:54;-0.80;99.90
65146;DHT22;51730;56.950;24.126;2023-01-05T08:49:21;-0.70;99.90
65146;DHT22;51730;56.950;24.126;2023-01-05T08:51:49;-0.70;99.90
65146;DHT22;51730;56.950;24.126;2023-01-05T08:54:16;-0.80;99.90
65146;DHT22;51730;56.950;24.126;2023-01-05T08:56:43;-0.70;99.90
65146;DHT22;51730;56.950;24.126;2023-01-05T08:59:13;-0.90;99.90
65146;DHT22;51730;56.950;24.126;2023-01-05T09:01:40;-0.90;99.90
65146;DHT22;51730;56.950;24.126;2023-01-05T09:04:07;-0.90;99.90
65146;DHT22;51730;56.950;24.126;2023-01-05T09:06:34;-0.80;99.90
65146;DHT22;51730;56.950;24.126;2023-01-05T09:09:01;-1.00;99.90
65146;DHT22;51730;56.950;24.126;2023-01-05T09:11:28;-0.90;99.90
65146;DHT22;51730;56.950;24.126;2023-01-05T09:13:58;-0.80;99.90
65146;DHT22;51730;56.950;24.126;2023-01-05T09:16:27;-0.90;99.90
65146;DHT22;51730;56.950;24.126;2023-01-05T09:19:15;-0.80;99.90
65146;DHT22;51730;56.950;24.126;2023-01-05T09:21:42;-0.90;99.90
65146;DHT22;51730;56.950;24.126;2023-01-05T09:24:10;-1.10;99.90
65146;DHT22;51730;56.950;24.126;2023-01-05T09:26:39;-1.00;99.90
65146;DHT22;51730;56.950;24.126;2023-01-05T09:29:06;-1.10;99.90
65146;DHT22;51730;56.950;24.126;2023-01-05T09:31:33;-1.00;99.90
65146;DHT22;51730;56.950;24.126;2023-01-05T09:34:00;-1.10;99.90
65146;DHT22;51730;56.950;24.126;2023-01-05T09:36:27;-1.10;99.90
65146;DHT22;51730;56.950;24.126;2023-01-05T09:38:54;-1.10;99.90
65146;DHT22;51730;56.950;24.126;2023-01-05T09:41:39;-0.90;99.90
65146;DHT22;51730;56.950;24.126;2023-01-05T09:44:34;-1.00;99.90
65146;DHT22;51730;56.950;24.126;2023-01-05T09:49:49;-0.90;99.90
65146;DHT22;51730;56.950;24.126;2023-01-05T09:52:19;-1.00;99.90
65146;DHT22;51730;56.950;24.126;2023-01-05T09:54:46;-1.10;99.90
65146;DHT22;51730;56.950;24.126;2023-01-05T09:57:19;-1.10;99.90
65146;DHT22;51730;56.950;24.126;2023-01-05T09:59:52;-1.00;99.90
65146;DHT22;51730;56.950;24.126;2023-01-05T10:03:03;-1.10;99.90
65146;DHT22;51730;56.950;24.126;2023-01-05T10:05:12;-1.10;99.90
65146;DHT22;51730;56.950;24.126;2023-01-05T10:13:21;-1.30;99.90
65146;DHT22;51730;56.950;24.126;2023-01-05T10:15:53;-1.20;99.90
65146;DHT22;51730;56.950;24.126;2023-01-05T10:18:24;-1.10;99.90
65146;DHT22;51730;56.950;24.126;2023-01-05T10:29:43;-1.40;99.90
65146;DHT22;51730;56.950;24.126;2023-01-05T10:34:59;-1.30;99.90
65146;DHT22;51730;56.950;24.126;2023-01-05T10:45:29;-1.50;99.90
65146;DHT22;51730;56.950;24.126;2023-01-05T10:47:57;-1.70;99.90
65146;DHT22;51730;56.950;24.126;2023-01-05T10:50:32;-1.70;99.90
65146;DHT22;51730;56.950;24.126;2023-01-05T10:53:14;-1.50;99.90
65146;DHT22;51730;56.950;24.126;2023-01-05T10:58:26;-1.80;99.90
65146;DHT22;51730;56.950;24.126;2023-01-05T11:01:37;-1.80;99.90
65146;DHT22;51730;56.950;24.126;2023-01-05T11:03:46;-1.80;99.90
65146;DHT22;51730;56.950;24.126;2023-01-05T11:06:35;-1.70;99.90
65146;DHT22;51730;56.950;24.126;2023-01-05T11:11:33;-1.90;99.90
65146;DHT22;51730;56.950;24.126;2023-01-05T11:14:00;-2.00;99.90
65146;DHT22;51730;56.950;24.126;2023-01-05T11:16:29;-2.20;99.90
65146;DHT22;51730;56.950;24.126;2023-01-05T11:19:12;-2.20;99.90
65146;DHT22;51730;56.950;24.126;2023-01-05T11:21:42;-2.30;99.90
65146;DHT22;51730;56.950;24.126;2023-01-05T11:27:21;-2.20;99.90
65146;DHT22;51730;56.950;24.126;2023-01-05T11:32:36;-2.10;99.90
65146;DHT22;51730;56.950;24.126;2023-01-05T11:35:03;-2.00;99.90
65146;DHT22;51730;56.950;24.126;2023-01-05T11:37:30;-2.20;99.90
65146;DHT22;51730;56.950;24.126;2023-01-05T11:40:02;-2.20;99.90
65146;DHT22;51730;56.950;24.126;2023-01-05T11:42:31;-2.30;99.90
65146;DHT22;51730;56.950;24.126;2023-01-05T11:45:18;-2.40;99.90
65146;DHT22;51730;56.950;24.126;2023-01-05T11:47:57;-2.40;99.90
65146;DHT22;51730;56.950;24.126;2023-01-05T11:50:46;-2.50;99.90
65146;DHT22;51730;56.950;24.126;2023-01-05T11:53:44;-2.50;99.90
65146;DHT22;51730;56.950;24.126;2023-01-05T11:56:20;-2.60;99.90
65146;DHT22;51730;56.950;24.126;2023-01-05T11:58:50;-2.60;99.90
65146;DHT22;51730;56.950;24.126;2023-01-05T12:07:19;-2.70;99.90
65146;DHT22;51730;56.950;24.126;2023-01-05T12:21:02;-2.90;99.90
65146;DHT22;51730;56.950;24.126;2023-01-05T12:23:53;-2.90;99.90
65146;DHT22;51730;56.950;24.126;2023-01-05T12:26:49;-2.90;99.90
65146;DHT22;51730;56.950;24.126;2023-01-05T12:40:44;-2.80;99.90
65146;DHT22;51730;56.950;24.126;2023-01-05T12:49:23;-2.70;99.90
65146;DHT22;51730;56.950;24.126;2023-01-05T12:52:08;-2.60;99.90
65146;DHT22;51730;56.950;24.126;2023-01-05T12:54:44;-2.80;99.90
65146;DHT22;51730;56.950;24.126;2023-01-05T12:57:22;-3.00;99.90
65146;DHT22;51730;56.950;24.126;2023-01-05T13:00:08;-3.10;99.90
65146;DHT22;51730;56.950;24.126;2023-01-05T13:02:46;-3.00;99.90
65146;DHT22;51730;56.950;24.126;2023-01-05T13:13:54;-3.20;99.90
65146;DHT22;51730;56.950;24.126;2023-01-05T13:16:28;-3.20;99.90
65146;DHT22;51730;56.950;24.126;2023-01-05T13:19:21;-3.20;99.90
65146;DHT22;51730;56.950;24.126;2023-01-05T13:21:51;-3.40;99.90
65146;DHT22;51730;56.950;24.126;2023-01-05T13:24:25;-3.50;99.90
65146;DHT22;51730;56.950;24.126;2023-01-05T13:26:56;-3.70;99.90
65146;DHT22;51730;56.950;24.126;2023-01-05T13:29:54;-3.70;99.90
65146;DHT22;51730;56.950;24.126;2023-01-05T13:46:38;-4.10;99.90
65146;DHT22;51730;56.950;24.126;2023-01-05T13:52:18;-4.30;99.90
65146;DHT22;51730;56.950;24.126;2023-01-05T13:54:53;-4.40;99.90
65146;DHT22;51730;56.950;24.126;2023-01-05T13:57:33;-4.30;99.90
65146;DHT22;51730;56.950;24.126;2023-01-05T14:00:05;-4.10;99.90
65146;DHT22;51730;56.950;24.126;2023-01-05T14:02:41;-4.00;99.90
65146;DHT22;51730;56.950;24.126;2023-01-05T14:05:40;-3.90;99.90
65146;DHT22;51730;56.950;24.126;2023-01-05T14:08:45;-4.00;99.90
65146;DHT22;51730;56.950;24.126;2023-01-05T14:11:18;-4.20;99.90
65146;DHT22;51730;56.950;24.126;2023-01-05T14:13:57;-4.20;99.90
65146;DHT22;51730;56.950;24.126;2023-01-05T14:35:20;-4.50;99.30
65146;DHT22;51730;56.950;24.126;2023-01-05T14:40:27;-4.70;99.90
65146;DHT22;51730;56.950;24.126;2023-01-05T14:42:56;-4.70;99.90
65146;DHT22;51730;56.950;24.126;2023-01-05T14:45:30;-4.70;99.90
65146;DHT22;51730;56.950;24.126;2023-01-05T14:48:03;-4.60;99.90
65146;DHT22;51730;56.950;24.126;2023-01-05T14:50:38;-4.50;99.90
65146;DHT22;51730;56.950;24.126;2023-01-05T14:53:12;-4.70;99.20
65146;DHT22;51730;56.950;24.126;2023-01-05T15:10:26;-4.70;98.40
65146;DHT22;51730;56.950;24.126;2023-01-05T15:32:19;-4.80;98.10
65146;DHT22;51730;56.950;24.126;2023-01-05T15:34:55;-4.80;97.40
65146;DHT22;51730;56.950;24.126;2023-01-05T15:37:37;-4.90;96.90
65146;DHT22;51730;56.950;24.126;2023-01-05T15:40:12;-5.00;96.70
65146;DHT22;51730;56.950;24.126;2023-01-05T15:42:57;-5.00;98.80
65146;DHT22;51730;56.950;24.126;2023-01-05T15:47:55;-5.20;96.80
65146;DHT22;51730;56.950;24.126;2023-01-05T15:50:25;-5.10;98.00
65146;DHT22;51730;56.950;24.126;2023-01-05T15:52:56;-5.00;97.60
65146;DHT22;51730;56.950;24.126;2023-01-05T15:55:25;-5.20;96.70
65146;DHT22;51730;56.950;24.126;2023-01-05T16:00:30;-5.20;98.90
65146;DHT22;51730;56.950;24.126;2023-01-05T16:02:58;-5.20;98.20
65146;DHT22;51730;56.950;24.126;2023-01-05T16:05:27;-5.30;96.90
65146;DHT22;51730;56.950;24.126;2023-01-05T16:13:21;-5.40;98.10
65146;DHT22;51730;56.950;24.126;2023-01-05T16:15:54;-5.40;99.60
65146;DHT22;51730;56.950;24.126;2023-01-05T16:18:28;-5.40;99.90
65146;DHT22;51730;56.950;24.126;2023-01-05T16:20:57;-5.30;99.90
65146;DHT22;51730;56.950;24.126;2023-01-05T16:23:38;-5.30;98.60
65146;DHT22;51730;56.950;24.126;2023-01-05T16:26:16;-5.40;98.30
65146;DHT22;51730;56.950;24.126;2023-01-05T16:28:44;-5.50;99.10
65146;DHT22;51730;56.950;24.126;2023-01-05T16:31:24;-5.60;98.30
65146;DHT22;51730;56.950;24.126;2023-01-05T16:34:14;-5.50;99.30
65146;DHT22;51730;56.950;24.126;2023-01-05T16:37:17;-5.60;99.40
65146;DHT22;51730;56.950;24.126;2023-01-05T16:39:45;-5.60;98.30
65146;DHT22;51730;56.950;24.126;2023-01-05T16:42:20;-5.70;98.80
65146;DHT22;51730;56.950;24.126;2023-01-05T16:45:18;-5.70;99.90
65146;DHT22;51730;56.950;24.126;2023-01-05T16:47:45;-5.60;98.80
65146;DHT22;51730;56.950;24.126;2023-01-05T16:52:55;-5.70;99.90
65146;DHT22;51730;56.950;24.126;2023-01-05T16:57:55;-5.90;99.70
65146;DHT22;51730;56.950;24.126;2023-01-05T17:02:56;-5.90;99.90
65146;DHT22;51730;56.950;24.126;2023-01-05T17:05:25;-6.00;99.10
65146;DHT22;51730;56.950;24.126;2023-01-05T17:08:18;-6.10;99.30
65146;DHT22;51730;56.950;24.126;2023-01-05T17:10:45;-6.30;99.90
65146;DHT22;51730;56.950;24.126;2023-01-05T17:13:16;-6.20;99.90
65146;DHT22;51730;56.950;24.126;2023-01-05T17:15:47;-6.20;99.90
65146;DHT22;51730;56.950;24.126;2023-01-05T17:18:17;-6.40;99.90
65146;DHT22;51730;56.950;24.126;2023-01-05T17:20:44;-6.20;99.90
65146;DHT22;51730;56.950;24.126;2023-01-05T17:25:46;-6.30;99.90
65146;DHT22;51730;56.950;24.126;2023-01-05T17:28:13;-6.30;99.90
65146;DHT22;51730;56.950;24.126;2023-01-05T17:30:44;-6.30;99.80
65146;DHT22;51730;56.950;24.126;2023-01-05T17:33:11;-6.60;99.40
65146;DHT22;51730;56.950;24.126;2023-01-05T17:35:38;-6.70;99.90
65146;DHT22;51730;56.950;24.126;2023-01-05T17:38:05;-6.70;99.90
65146;DHT22;51730;56.950;24.126;2023-01-05T17:40:32;-6.70;99.90
65146;DHT22;51730;56.950;24.126;2023-01-05T17:42:59;-6.70;99.90
65146;DHT22;51730;56.950;24.126;2023-01-05T17:45:26;-6.50;99.90
65146;DHT22;51730;56.950;24.126;2023-01-05T17:47:53;-6.80;99.90
65146;DHT22;51730;56.950;24.126;2023-01-05T17:50:23;-6.80;99.90
65146;DHT22;51730;56.950;24.126;2023-01-05T17:52:53;-7.00;99.90
65146;DHT22;51730;56.950;24.126;2023-01-05T17:55:21;-7.00;99.90
65146;DHT22;51730;56.950;24.126;2023-01-05T17:57:48;-6.90;99.90
65146;DHT22;51730;56.950;24.126;2023-01-05T18:00:17;-6.90;99.90
65146;DHT22;51730;56.950;24.126;2023-01-05T18:02:48;-7.00;99.20
65146;DHT22;51730;56.950;24.126;2023-01-05T18:05:16;-7.20;99.90
65146;DHT22;51730;56.950;24.126;2023-01-05T18:07:44;-7.20;99.90
65146;DHT22;51730;56.950;24.126;2023-01-05T18:10:18;-7.10;99.90
65146;DHT22;51730;56.950;24.126;2023-01-05T18:12:46;-7.10;99.90
65146;DHT22;51730;56.950;24.126;2023-01-05T18:15:13;-7.20;99.90
65146;DHT22;51730;56.950;24.126;2023-01-05T18:17:40;-7.10;99.90
65146;DHT22;51730;56.950;24.126;2023-01-05T18:20:11;-7.30;99.90
65146;DHT22;51730;56.950;24.126;2023-01-05T18:22:38;-7.30;99.90
65146;DHT22;51730;56.950;24.126;2023-01-05T18:25:06;-7.30;99.90
65146;DHT22;51730;56.950;24.126;2023-01-05T18:27:33;-7.20;99.90
65146;DHT22;51730;56.950;24.126;2023-01-05T18:30:02;-7.30;99.90
65146;DHT22;51730;56.950;24.126;2023-01-05T18:32:29;-7.40;99.90
65146;DHT22;51730;56.950;24.126;2023-01-05T18:35:01;-7.30;99.90
65146;DHT22;51730;56.950;24.126;2023-01-05T18:37:35;-7.40;99.90
65146;DHT22;51730;56.950;24.126;2023-01-05T18:40:02;-7.40;99.90
65146;DHT22;51730;56.950;24.126;2023-01-05T18:42:29;-7.40;99.90
65146;DHT22;51730;56.950;24.126;2023-01-05T18:44:56;-7.60;99.90
65146;DHT22;51730;56.950;24.126;2023-01-05T18:47:24;-7.60;99.90
65146;DHT22;51730;56.950;24.126;2023-01-05T18:49:51;-7.50;99.90
65146;DHT22;51730;56.950;24.126;2023-01-05T18:52:20;-7.50;99.90
65146;DHT22;51730;56.950;24.126;2023-01-05T18:54:47;-7.50;99.90
65146;DHT22;51730;56.950;24.126;2023-01-05T18:57:14;-7.50;99.90
65146;DHT22;51730;56.950;24.126;2023-01-05T18:59:41;-7.60;99.90
65146;DHT22;51730;56.950;24.126;2023-01-05T19:02:12;-7.70;99.90
65146;DHT22;51730;56.950;24.126;2023-01-05T19:04:40;-7.60;99.90
65146;DHT22;51730;56.950;24.126;2023-01-05T19:07:07;-7.70;99.90
65146;DHT22;51730;56.950;24.126;2023-01-05T19:09:34;-7.70;99.90